Time;durP1;ratioP1;P1;durP2;ratioP2;P2;SDS_P1;SDS_P2;PMS_P1;PMS_P2;Temp;Humidity;BMP_temperature;BMP_pressure;BME280_temperature;BME280_humidity;BME280_pressure;Samples;Min_cycle;Max_cycle;Signal;HPM_P1;HPM_P2
2023/04/07 00:00:43;;;;;;;71.90;43.10;;;;;;;;;;759756;182;627379;-79
2023/04/07 00:03:10;;;;;;;73.43;39.87;;;;;;;;;;770575;179;631285;-79
2023/04/07 00:05:35;;;;;;;70.07;40.50;;;;;;;;;;764608;183;645443;-76
2023/04/07 00:08:01;;;;;;;72.23;41.53;;;;;;;;;;765974;181;630605;-78
2023/04/07 00:10:27;;;;;;;87.40;42.80;;;;;;;;;;770425;179;613800;-79
2023/04/07 00:12:53;;;;;;;73.73;42.10;;;;;;;;;;775290;179;644812;-76
2023/04/07 00:15:19;;;;;;;66.60;40.20;;;;;;;;;;752347;184;624993;-78
2023/04/07 00:17:44;;;;;;;68.20;43.20;;;;;;;;;;757799;181;614655;-78
2023/04/07 00:20:11;;;;;;;73.90;42.27;;;;;;;;;;760969;182;631108;-76
2023/04/07 00:22:36;;;;;;;75.77;41.07;;;;;;;;;;777055;178;642497;-79
2023/04/07 00:25:02;;;;;;;67.80;40.40;;;;;;;;;;752120;185;636992;-77
2023/04/07 00:27:28;;;;;;;79.90;43.90;;;;;;;;;;746411;185;669195;-79
2023/04/07 00:29:54;;;;;;;72.47;40.10;;;;;;;;;;767475;182;624930;-79
2023/04/07 00:32:20;;;;;;;84.77;43.23;;;;;;;;;;760042;182;635292;-79
2023/04/07 00:34:46;;;;;;;71.73;42.07;;;;;;;;;;761688;182;629213;-77
2023/04/07 00:37:12;;;;;;;73.07;42.37;;;;;;;;;;765839;182;640495;-76
2023/04/07 00:39:37;;;;;;;72.47;41.67;;;;;;;;;;756302;184;629077;-79
2023/04/07 00:42:05;;;;;;;89.27;47.67;;;;;;;;;;753418;183;628111;-79
2023/04/07 00:44:29;;;;;;;81.80;45.70;;;;;;;;;;759268;182;636967;-79
2023/04/07 00:46:55;;;;;;;86.47;47.70;;;;;;;;;;766663;183;653439;-78
2023/04/07 00:49:21;;;;;;;79.97;43.97;;;;;;;;;;749337;185;629607;-79
2023/04/07 00:51:47;;;;;;;79.37;43.23;;;;;;;;;;750217;185;633140;-76
2023/04/07 00:54:13;;;;;;;65.37;40.33;;;;;;;;;;759768;183;639666;-78
2023/04/07 00:56:39;;;;;;;72.67;41.13;;;;;;;;;;761908;182;640086;-79
2023/04/07 00:59:04;;;;;;;79.60;44.80;;;;;;;;;;761135;181;630342;-79
2023/04/07 01:01:30;;;;;;;69.47;40.40;;;;;;;;;;765096;182;667808;-80
2023/04/07 01:03:57;;;;;;;77.33;42.67;;;;;;;;;;754092;182;635271;-79
2023/04/07 01:06:23;;;;;;;71.10;42.50;;;;;;;;;;760717;182;631217;-79
2023/04/07 01:08:53;;;;;;;77.00;43.97;;;;;;;;;;760152;182;626294;-79
2023/04/07 01:11:25;;;;;;;76.30;43.53;;;;;;;;;;771386;182;634264;-80
2023/04/07 01:13:51;;;;;;;84.47;42.97;;;;;;;;;;758743;182;634337;-80
2023/04/07 01:16:19;;;;;;;69.67;41.17;;;;;;;;;;760883;181;636769;-79
2023/04/07 01:18:45;;;;;;;73.50;42.67;;;;;;;;;;753068;184;638485;-79
2023/04/07 01:21:10;;;;;;;78.07;43.20;;;;;;;;;;761451;183;626414;-78
2023/04/07 01:23:42;;;;;;;74.00;41.50;;;;;;;;;;766236;182;636253;-80
2023/04/07 01:26:10;;;;;;;77.53;43.77;;;;;;;;;;765824;182;630163;-79
2023/04/07 01:28:39;;;;;;;74.43;43.67;;;;;;;;;;770418;181;637302;-79
2023/04/07 01:31:05;;;;;;;78.67;44.70;;;;;;;;;;764780;182;622644;-78
2023/04/07 01:33:31;;;;;;;80.33;42.60;;;;;;;;;;755345;184;623795;-78
2023/04/07 01:35:57;;;;;;;77.27;46.10;;;;;;;;;;762015;182;626802;-80
2023/04/07 01:38:23;;;;;;;73.40;43.60;;;;;;;;;;764234;183;625319;-79
2023/04/07 01:40:48;;;;;;;70.53;41.80;;;;;;;;;;766218;181;627252;-80
2023/04/07 01:43:14;;;;;;;68.60;42.10;;;;;;;;;;759201;180;634008;-79
2023/04/07 01:45:40;;;;;;;76.80;45.47;;;;;;;;;;771815;180;618560;-80
2023/04/07 01:48:07;;;;;;;71.03;41.53;;;;;;;;;;765263;183;636072;-79
2023/04/07 01:50:32;;;;;;;71.33;43.20;;;;;;;;;;755723;185;633902;-79
2023/04/07 01:52:58;;;;;;;77.70;45.10;;;;;;;;;;755733;185;621720;-79
2023/04/07 01:55:24;;;;;;;74.07;43.87;;;;;;;;;;752242;185;639686;-80
2023/04/07 01:57:50;;;;;;;68.57;39.90;;;;;;;;;;762019;182;722131;-78
2023/04/07 02:00:15;;;;;;;71.73;43.60;;;;;;;;;;759121;183;646459;-80
2023/04/07 02:02:41;;;;;;;77.23;44.40;;;;;;;;;;766829;181;628860;-80
2023/04/07 02:05:07;;;;;;;73.60;40.37;;;;;;;;;;771438;180;628853;-78
2023/04/07 02:07:34;;;;;;;75.07;43.70;;;;;;;;;;760964;183;620499;-80
2023/04/07 02:10:00;;;;;;;77.33;42.60;;;;;;;;;;770799;180;626560;-80
2023/04/07 02:12:26;;;;;;;79.63;43.90;;;;;;;;;;766529;180;617670;-78
2023/04/07 02:14:52;;;;;;;68.57;41.00;;;;;;;;;;763068;180;633953;-80
2023/04/07 02:17:17;;;;;;;71.00;41.67;;;;;;;;;;771454;182;632654;-79
2023/04/07 02:19:43;;;;;;;71.87;43.43;;;;;;;;;;765427;181;631442;-79
2023/04/07 02:22:10;;;;;;;66.30;41.37;;;;;;;;;;756491;184;623267;-79
2023/04/07 02:24:35;;;;;;;68.10;43.47;;;;;;;;;;762814;183;629533;-80
2023/04/07 02:27:01;;;;;;;71.90;43.50;;;;;;;;;;768416;181;633512;-79
2023/04/07 02:29:27;;;;;;;71.43;43.33;;;;;;;;;;770904;181;625318;-79
2023/04/07 02:31:53;;;;;;;73.50;42.97;;;;;;;;;;758656;183;640584;-78
2023/04/07 02:34:18;;;;;;;72.73;43.40;;;;;;;;;;761210;183;626294;-78
2023/04/07 02:36:44;;;;;;;79.47;44.17;;;;;;;;;;760571;184;642297;-80
2023/04/07 02:39:10;;;;;;;69.37;40.67;;;;;;;;;;754797;183;636157;-78
2023/04/07 02:41:36;;;;;;;68.90;41.90;;;;;;;;;;765572;182;636079;-79
2023/04/07 02:44:02;;;;;;;71.87;44.37;;;;;;;;;;760381;181;620341;-80
2023/04/07 02:46:28;;;;;;;75.23;45.70;;;;;;;;;;767570;180;624851;-80
2023/04/07 02:48:53;;;;;;;81.47;45.67;;;;;;;;;;762700;182;630605;-78
2023/04/07 02:51:19;;;;;;;71.10;41.17;;;;;;;;;;747333;186;621216;-79
2023/04/07 02:53:45;;;;;;;75.40;43.40;;;;;;;;;;764485;182;631864;-79
2023/04/07 02:56:11;;;;;;;80.93;45.40;;;;;;;;;;761282;182;625307;-80
2023/04/07 02:58:37;;;;;;;73.60;44.97;;;;;;;;;;757654;182;628978;-79
2023/04/07 03:01:03;;;;;;;69.27;41.80;;;;;;;;;;757643;182;628266;-77
2023/04/07 03:03:29;;;;;;;74.87;44.53;;;;;;;;;;753065;183;627921;-79
2023/04/07 03:05:54;;;;;;;73.15;45.55;;;;;;;;;;747851;186;619653;-79
2023/04/07 03:08:20;;;;;;;80.50;45.40;;;;;;;;;;756059;184;644495;-79
2023/04/07 03:10:46;;;;;;;76.23;43.23;;;;;;;;;;756621;182;630408;-79
2023/04/07 03:13:15;;;;;;;77.90;44.47;;;;;;;;;;758832;185;615924;-79
2023/04/07 03:15:38;;;;;;;73.70;43.20;;;;;;;;;;761636;179;627661;-77
2023/04/07 03:18:04;;;;;;;74.77;41.90;;;;;;;;;;757993;182;632878;-78
2023/04/07 03:20:29;;;;;;;82.77;45.50;;;;;;;;;;763501;181;625499;-80
2023/04/07 03:22:56;;;;;;;80.00;45.53;;;;;;;;;;761346;182;634732;-80
2023/04/07 03:25:21;;;;;;;77.97;45.33;;;;;;;;;;758824;181;646341;-79
2023/04/07 03:27:47;;;;;;;76.77;44.60;;;;;;;;;;751332;183;638785;-77
2023/04/07 03:30:13;;;;;;;77.00;43.70;;;;;;;;;;758567;183;636714;-80
2023/04/07 03:32:39;;;;;;;82.70;44.67;;;;;;;;;;752838;183;628437;-79
2023/04/07 03:35:05;;;;;;;77.63;43.17;;;;;;;;;;754640;182;624691;-80
2023/04/07 03:37:31;;;;;;;70.63;44.00;;;;;;;;;;769603;180;625590;-78
2023/04/07 03:39:56;;;;;;;76.40;41.27;;;;;;;;;;759911;181;631169;-79
2023/04/07 03:42:23;;;;;;;74.07;43.13;;;;;;;;;;765238;182;683677;-77
2023/04/07 03:44:49;;;;;;;74.47;41.13;;;;;;;;;;760198;184;631755;-79
2023/04/07 03:47:15;;;;;;;71.30;40.37;;;;;;;;;;760459;184;640135;-79
2023/04/07 03:49:41;;;;;;;63.53;39.00;;;;;;;;;;755622;182;733477;-79
2023/04/07 03:52:06;;;;;;;64.73;37.93;;;;;;;;;;761036;183;758061;-78
2023/04/07 03:54:34;;;;;;;72.90;42.87;;;;;;;;;;762574;183;636484;-80
2023/04/07 03:56:58;;;;;;;74.93;42.57;;;;;;;;;;758984;184;621127;-79
2023/04/07 03:59:24;;;;;;;72.53;42.67;;;;;;;;;;761511;183;638763;-80
2023/04/07 04:01:50;;;;;;;73.87;43.00;;;;;;;;;;755692;182;630305;-78
2023/04/07 04:04:16;;;;;;;74.63;42.80;;;;;;;;;;756197;185;621146;-79
2023/04/07 04:06:42;;;;;;;78.37;43.50;;;;;;;;;;761426;184;627047;-77
2023/04/07 04:09:07;;;;;;;67.47;43.23;;;;;;;;;;756692;183;627915;-79
2023/04/07 04:11:33;;;;;;;76.60;42.27;;;;;;;;;;765592;183;613837;-80
2023/04/07 04:13:59;;;;;;;67.07;39.70;;;;;;;;;;756778;182;651522;-78
2023/04/07 04:16:25;;;;;;;71.47;41.90;;;;;;;;;;765210;182;631045;-79
2023/04/07 04:18:51;;;;;;;62.93;37.93;;;;;;;;;;758913;182;690000;-79
2023/04/07 04:21:17;;;;;;;64.40;41.53;;;;;;;;;;755778;182;652675;-79
2023/04/07 04:23:43;;;;;;;69.80;38.93;;;;;;;;;;754239;182;672673;-78
2023/04/07 04:26:08;;;;;;;75.30;40.17;;;;;;;;;;756882;183;630206;-78
2023/04/07 04:28:34;;;;;;;64.40;40.03;;;;;;;;;;760869;181;683804;-80
2023/04/07 04:31:00;;;;;;;74.55;43.08;;;;;;;;;;753878;182;2251005;-78
2023/04/07 04:33:26;;;;;;;64.60;39.27;;;;;;;;;;765459;181;641119;-79
2023/04/07 04:35:52;;;;;;;63.77;37.10;;;;;;;;;;748357;185;623284;-80
2023/04/07 04:38:18;;;;;;;72.93;42.30;;;;;;;;;;759580;183;638608;-79
2023/04/07 04:40:44;;;;;;;66.57;37.00;;;;;;;;;;763975;182;637337;-79
2023/04/07 04:43:10;;;;;;;73.63;40.17;;;;;;;;;;765638;181;637675;-77
2023/04/07 04:45:35;;;;;;;71.37;40.03;;;;;;;;;;763148;180;651776;-79
2023/04/07 04:48:01;;;;;;;63.30;38.17;;;;;;;;;;763395;181;656541;-80
2023/04/07 04:50:27;;;;;;;64.30;38.13;;;;;;;;;;772677;180;621463;-79
2023/04/07 04:52:53;;;;;;;61.43;38.63;;;;;;;;;;762125;180;637376;-79
2023/04/07 04:55:19;;;;;;;70.13;37.80;;;;;;;;;;760270;184;644218;-78
2023/04/07 04:57:45;;;;;;;66.83;40.57;;;;;;;;;;758825;184;656932;-80
2023/04/07 05:00:11;;;;;;;76.57;42.43;;;;;;;;;;755501;182;630011;-80
2023/04/07 05:02:37;;;;;;;77.13;44.00;;;;;;;;;;761191;182;652620;-78
2023/04/07 05:05:03;;;;;;;70.67;39.50;;;;;;;;;;759998;184;634746;-79
2023/04/07 05:07:28;;;;;;;68.97;42.10;;;;;;;;;;765993;181;629482;-79
2023/04/07 05:09:54;;;;;;;64.63;39.10;;;;;;;;;;764974;183;637126;-78
2023/04/07 05:12:21;;;;;;;79.87;43.50;;;;;;;;;;751075;185;624085;-78
2023/04/07 05:14:46;;;;;;;72.00;40.00;;;;;;;;;;757467;182;674001;-80
2023/04/07 05:17:12;;;;;;;71.00;42.13;;;;;;;;;;762629;182;642668;-79
2023/04/07 05:19:38;;;;;;;71.87;42.50;;;;;;;;;;756805;182;647113;-80
2023/04/07 05:22:04;;;;;;;72.17;41.80;;;;;;;;;;768353;182;635600;-79
2023/04/07 05:24:29;;;;;;;68.80;43.50;;;;;;;;;;754647;182;641174;-80
2023/04/07 05:26:55;;;;;;;68.43;41.93;;;;;;;;;;765601;181;638628;-79
2023/04/07 05:29:21;;;;;;;71.53;43.00;;;;;;;;;;763270;182;666097;-80
2023/04/07 05:31:47;;;;;;;75.77;41.30;;;;;;;;;;767892;181;638164;-80
2023/04/07 05:34:13;;;;;;;72.93;43.77;;;;;;;;;;760868;181;643690;-79
2023/04/07 05:36:39;;;;;;;71.10;39.40;;;;;;;;;;767092;179;779641;-80
2023/04/07 05:39:05;;;;;;;70.50;41.57;;;;;;;;;;764039;183;638471;-79
2023/04/07 05:41:30;;;;;;;82.87;44.37;;;;;;;;;;760655;181;649291;-79
2023/04/07 05:43:56;;;;;;;70.57;41.77;;;;;;;;;;760638;181;638660;-78
2023/04/07 05:46:22;;;;;;;66.07;36.13;;;;;;;;;;754638;182;645127;-77
2023/04/07 05:48:48;;;;;;;71.13;39.20;;;;;;;;;;757855;182;631348;-77
2023/04/07 05:51:14;;;;;;;68.77;38.50;;;;;;;;;;752500;182;633644;-79
2023/04/07 05:53:40;;;;;;;71.90;38.37;;;;;;;;;;756388;183;756316;-78
2023/04/07 05:56:06;;;;;;;65.67;38.90;;;;;;;;;;766199;182;632409;-80
2023/04/07 05:58:32;;;;;;;67.63;38.23;;;;;;;;;;766032;182;626135;-80
2023/04/07 06:00:57;;;;;;;61.17;37.00;;;;;;;;;;755350;182;649924;-79
2023/04/07 06:03:23;;;;;;;62.60;37.20;;;;;;;;;;757333;185;629447;-79
2023/04/07 06:05:49;;;;;;;71.70;39.33;;;;;;;;;;766342;182;644543;-79
2023/04/07 06:08:15;;;;;;;67.10;39.43;;;;;;;;;;763905;181;624507;-79
2023/04/07 06:10:43;;;;;;;69.37;40.20;;;;;;;;;;754374;181;637013;-78
2023/04/07 06:13:07;;;;;;;70.53;39.70;;;;;;;;;;768252;180;635921;-80
2023/04/07 06:15:33;;;;;;;63.50;37.80;;;;;;;;;;762793;181;647921;-81
2023/04/07 06:17:59;;;;;;;68.95;40.88;;;;;;;;;;753482;186;636996;-82
2023/04/07 06:20:26;;;;;;;79.87;40.77;;;;;;;;;;769261;182;636491;-80
2023/04/07 06:22:50;;;;;;;67.83;40.90;;;;;;;;;;760674;182;655023;-81
2023/04/07 06:25:16;;;;;;;71.00;39.37;;;;;;;;;;747915;184;741644;-81
2023/04/07 06:27:42;;;;;;;59.53;35.27;;;;;;;;;;752565;186;637973;-79
2023/04/07 06:30:08;;;;;;;56.67;35.80;;;;;;;;;;756931;184;676925;-80
2023/04/07 06:32:34;;;;;;;68.73;38.27;;;;;;;;;;750424;183;655942;-80
2023/04/07 06:35:00;;;;;;;57.80;35.43;;;;;;;;;;759846;181;745969;-80
2023/04/07 06:37:26;;;;;;;60.40;33.90;;;;;;;;;;759472;182;637923;-80
2023/04/07 06:39:52;;;;;;;60.13;37.00;;;;;;;;;;762292;182;628322;-79
2023/04/07 06:42:18;;;;;;;56.03;36.87;;;;;;;;;;764699;182;696394;-80
2023/04/07 06:44:44;;;;;;;56.33;33.70;;;;;;;;;;757144;180;626613;-78
2023/04/07 06:47:10;;;;;;;59.73;37.70;;;;;;;;;;760873;183;633253;-77
2023/04/07 06:49:35;;;;;;;55.83;32.83;;;;;;;;;;752577;182;634569;-78
2023/04/07 06:52:01;;;;;;;55.50;31.97;;;;;;;;;;764323;182;644366;-77
2023/04/07 06:54:27;;;;;;;52.50;31.40;;;;;;;;;;764630;181;649898;-78
2023/04/07 06:56:53;;;;;;;45.60;28.52;;;;;;;;;;764505;181;624707;-77
2023/04/07 06:59:19;;;;;;;53.90;30.90;;;;;;;;;;766766;182;613911;-78
2023/04/07 07:01:45;;;;;;;49.00;30.83;;;;;;;;;;761352;181;636539;-77
2023/04/07 07:04:11;;;;;;;47.83;31.77;;;;;;;;;;763887;181;756480;-77
2023/04/07 07:06:37;;;;;;;47.00;28.50;;;;;;;;;;764559;180;689933;-78
2023/04/07 07:09:03;;;;;;;56.10;33.87;;;;;;;;;;750214;184;1058367;-78
2023/04/07 07:11:29;;;;;;;66.20;40.37;;;;;;;;;;758146;182;662798;-77
2023/04/07 07:13:54;;;;;;;109.77;49.33;;;;;;;;;;762474;181;620077;-78
2023/04/07 07:16:22;;;;;;;51.63;31.17;;;;;;;;;;757983;185;721091;-78
2023/04/07 07:18:46;;;;;;;50.30;30.23;;;;;;;;;;760582;183;634514;-80
2023/04/07 07:21:12;;;;;;;48.10;31.20;;;;;;;;;;759060;183;658816;-79
2023/04/07 07:23:38;;;;;;;69.20;41.20;;;;;;;;;;765932;182;617852;-78
2023/04/07 07:26:04;;;;;;;43.80;29.53;;;;;;;;;;765260;181;632887;-79
2023/04/07 07:28:30;;;;;;;44.55;28.08;;;;;;;;;;757547;181;1204593;-80
2023/04/07 07:30:55;;;;;;;45.67;29.33;;;;;;;;;;764884;181;654534;-80
2023/04/07 07:33:21;;;;;;;69.50;43.60;;;;;;;;;;762980;181;637459;-80
2023/04/07 07:35:47;;;;;;;41.60;28.63;;;;;;;;;;767556;180;660554;-78
2023/04/07 07:38:13;;;;;;;50.13;36.73;;;;;;;;;;761530;181;635499;-77
2023/04/07 07:40:39;;;;;;;38.73;26.37;;;;;;;;;;759880;183;643615;-77
2023/04/07 07:43:05;;;;;;;39.40;27.17;;;;;;;;;;751318;183;637384;-77
2023/04/07 07:45:31;;;;;;;33.63;23.47;;;;;;;;;;734721;190;625513;-76
2023/04/07 07:47:56;;;;;;;39.20;25.40;;;;;;;;;;755193;186;629604;-77
2023/04/07 07:50:22;;;;;;;42.00;23.37;;;;;;;;;;746868;185;623058;-77
2023/04/07 07:52:48;;;;;;;38.67;26.07;;;;;;;;;;752475;184;637463;-77
2023/04/07 07:55:14;;;;;;;35.23;23.27;;;;;;;;;;749399;184;628284;-77
2023/04/07 07:57:40;;;;;;;38.03;22.03;;;;;;;;;;765734;180;643895;-76
2023/04/07 08:00:06;;;;;;;35.60;25.17;;;;;;;;;;751910;183;661788;-78
2023/04/07 08:02:32;;;;;;;42.43;26.87;;;;;;;;;;762576;183;634427;-78
2023/04/07 08:04:58;;;;;;;35.17;22.57;;;;;;;;;;754934;184;755871;-77
2023/04/07 08:07:24;;;;;;;41.00;26.53;;;;;;;;;;756484;182;633584;-76
2023/04/07 08:09:50;;;;;;;41.10;25.57;;;;;;;;;;767449;181;638339;-78
2023/04/07 08:12:15;;;;;;;33.13;22.97;;;;;;;;;;767842;182;647284;-79
2023/04/07 08:14:41;;;;;;;37.87;25.30;;;;;;;;;;761691;181;665692;-77
2023/04/07 08:17:07;;;;;;;41.87;25.03;;;;;;;;;;754967;184;647465;-78
2023/04/07 08:19:33;;;;;;;46.20;28.37;;;;;;;;;;767866;182;667855;-78
2023/04/07 08:21:59;;;;;;;40.50;25.40;;;;;;;;;;767275;181;685075;-78
2023/04/07 08:24:25;;;;;;;39.30;25.77;;;;;;;;;;763342;182;655579;-79
2023/04/07 08:26:52;;;;;;;44.10;27.77;;;;;;;;;;762101;182;635902;-78
2023/04/07 08:29:17;;;;;;;34.80;25.20;;;;;;;;;;759683;182;643250;-78
2023/04/07 08:31:43;;;;;;;49.87;28.83;;;;;;;;;;760995;182;744770;-79
2023/04/07 08:34:09;;;;;;;30.97;20.60;;;;;;;;;;762540;181;631649;-78
2023/04/07 08:36:35;;;;;;;39.10;25.50;;;;;;;;;;761794;183;624027;-80
2023/04/07 08:39:03;;;;;;;52.13;31.47;;;;;;;;;;754859;181;636483;-80
2023/04/07 08:41:27;;;;;;;42.53;27.20;;;;;;;;;;757668;183;650753;-80
2023/04/07 08:43:53;;;;;;;42.70;27.20;;;;;;;;;;769477;182;614244;-80
2023/04/07 08:46:18;;;;;;;36.50;24.20;;;;;;;;;;763222;182;628210;-80
2023/04/07 08:48:44;;;;;;;38.10;24.77;;;;;;;;;;763914;182;626679;-80
2023/04/07 08:51:10;;;;;;;35.63;24.83;;;;;;;;;;770642;181;631698;-81
2023/04/07 08:53:37;;;;;;;31.30;19.53;;;;;;;;;;766157;181;630993;-79
2023/04/07 08:56:03;;;;;;;32.53;20.50;;;;;;;;;;748059;184;644438;-78
2023/04/07 08:58:29;;;;;;;39.03;26.07;;;;;;;;;;753040;185;627113;-78
2023/04/07 09:00:54;;;;;;;36.33;22.60;;;;;;;;;;751962;185;630205;-78
2023/04/07 09:03:20;;;;;;;33.90;22.23;;;;;;;;;;756568;182;646148;-79
2023/04/07 09:05:46;;;;;;;22.97;13.03;;;;;;;;;;760529;182;635888;-78
2023/04/07 09:08:12;;;;;;;43.20;25.80;;;;;;;;;;758747;183;618427;-80
2023/04/07 09:10:38;;;;;;;34.90;23.43;;;;;;;;;;758604;184;636427;-79
2023/04/07 09:13:04;;;;;;;33.70;24.13;;;;;;;;;;753031;184;633654;-79
2023/04/07 09:15:30;;;;;;;34.17;23.07;;;;;;;;;;769178;181;655667;-78
2023/04/07 09:17:56;;;;;;;39.07;23.00;;;;;;;;;;757618;184;631836;-80
2023/04/07 09:20:22;;;;;;;31.50;21.87;;;;;;;;;;760314;183;647274;-80
2023/04/07 09:22:49;;;;;;;35.10;24.03;;;;;;;;;;754262;184;625595;-81
2023/04/07 09:25:14;;;;;;;33.53;22.17;;;;;;;;;;758600;185;641242;-81
2023/04/07 09:27:40;;;;;;;38.63;23.80;;;;;;;;;;760825;182;626047;-78
2023/04/07 09:30:11;;;;;;;26.40;17.83;;;;;;;;;;762104;181;624447;-77
2023/04/07 09:32:37;;;;;;;24.67;17.20;;;;;;;;;;765956;182;623530;-79
2023/04/07 09:35:03;;;;;;;28.63;19.87;;;;;;;;;;754655;183;626826;-79
2023/04/07 09:37:29;;;;;;;27.77;17.80;;;;;;;;;;755598;184;719638;-81
2023/04/07 09:39:55;;;;;;;28.30;17.37;;;;;;;;;;767440;181;632871;-80
2023/04/07 09:42:21;;;;;;;36.53;24.37;;;;;;;;;;759501;184;634011;-80
2023/04/07 09:44:47;;;;;;;30.27;21.17;;;;;;;;;;758794;182;712955;-80
2023/04/07 09:47:13;;;;;;;27.30;18.83;;;;;;;;;;761098;182;647993;-80
2023/04/07 09:49:45;;;;;;;30.13;16.20;;;;;;;;;;759929;184;643683;-80
2023/04/07 09:52:11;;;;;;;23.87;13.80;;;;;;;;;;754757;183;625167;-80
2023/04/07 09:54:37;;;;;;;22.67;14.50;;;;;;;;;;766388;182;619556;-79
2023/04/07 09:57:04;;;;;;;23.93;15.17;;;;;;;;;;765000;179;623248;-78
2023/04/07 09:59:29;;;;;;;26.57;17.07;;;;;;;;;;763871;185;627794;-79
2023/04/07 10:01:55;;;;;;;11.60;8.10;;;;;;;;;;759208;182;624733;-80
2023/04/07 10:04:21;;;;;;;22.10;14.87;;;;;;;;;;764503;181;629286;-79
2023/04/07 10:06:47;;;;;;;20.30;12.97;;;;;;;;;;766998;183;633928;-79
2023/04/07 10:09:13;;;;;;;25.10;18.30;;;;;;;;;;765785;181;654714;-79
2023/04/07 10:11:39;;;;;;;23.57;14.87;;;;;;;;;;755756;185;625986;-78
2023/04/07 10:14:05;;;;;;;29.23;19.10;;;;;;;;;;762353;184;644240;-78
2023/04/07 10:16:31;;;;;;;27.07;19.83;;;;;;;;;;765703;182;725130;-80
2023/04/07 10:18:57;;;;;;;21.53;14.80;;;;;;;;;;764423;181;704777;-81
2023/04/07 10:21:23;;;;;;;13.47;9.57;;;;;;;;;;761532;181;636753;-79
2023/04/07 10:23:55;;;;;;;17.90;12.50;;;;;;;;;;765236;182;630347;-79
2023/04/07 10:26:20;;;;;;;25.30;16.60;;;;;;;;;;764647;182;640077;-80
2023/04/07 10:28:46;;;;;;;41.13;20.83;;;;;;;;;;764219;182;625949;-80
2023/04/07 10:31:12;;;;;;;32.50;14.77;;;;;;;;;;759426;184;637236;-79
2023/04/07 10:33:44;;;;;;;21.20;14.80;;;;;;;;;;760546;180;649173;-78
2023/04/07 10:36:10;;;;;;;13.47;8.20;;;;;;;;;;762668;181;625321;-79
2023/04/07 10:38:36;;;;;;;17.83;13.67;;;;;;;;;;764931;181;639627;-78
2023/04/07 10:41:02;;;;;;;17.90;12.00;;;;;;;;;;765579;182;699379;-80
2023/04/07 10:43:33;;;;;;;24.77;16.17;;;;;;;;;;762858;182;630996;-78
2023/04/07 10:45:59;;;;;;;22.33;14.20;;;;;;;;;;769358;180;627492;-79
2023/04/07 10:48:27;;;;;;;27.87;21.43;;;;;;;;;;763559;182;643512;-80
2023/04/07 10:51:07;;;;;;;33.27;20.80;;;;;;;;;;767381;181;626584;-80
2023/04/07 10:53:32;;;;;;;25.87;17.97;;;;;;;;;;752665;184;640398;-80
2023/04/07 10:55:58;;;;;;;138.70;56.60;;;;;;;;;;759075;183;779533;-79
2023/04/07 10:58:29;;;;;;;162.37;69.37;;;;;;;;;;753936;182;639872;-79
2023/04/07 11:01:11;;;;;;;36.57;20.67;;;;;;;;;;765883;181;692955;-79
2023/04/07 11:03:37;;;;;;;41.10;26.83;;;;;;;;;;761645;184;632259;-79
2023/04/07 11:06:04;;;;;;;41.23;27.80;;;;;;;;;;756486;182;621425;-79
2023/04/07 11:08:32;;;;;;;27.23;18.90;;;;;;;;;;763650;182;634131;-78
2023/04/07 11:10:58;;;;;;;19.27;14.87;;;;;;;;;;755452;185;636704;-81
2023/04/07 11:13:24;;;;;;;27.70;20.93;;;;;;;;;;761938;182;616216;-80
2023/04/07 11:15:51;;;;;;;26.23;19.60;;;;;;;;;;758084;184;657994;-79
2023/04/07 11:18:17;;;;;;;26.67;20.60;;;;;;;;;;763826;182;644689;-79
2023/04/07 11:20:43;;;;;;;23.40;17.07;;;;;;;;;;764529;182;626886;-80
2023/04/07 11:23:09;;;;;;;18.40;14.03;;;;;;;;;;764501;181;621491;-80
2023/04/07 11:25:35;;;;;;;20.30;15.40;;;;;;;;;;767942;180;639125;-78
2023/04/07 11:28:01;;;;;;;20.07;13.53;;;;;;;;;;758001;184;619710;-80
2023/04/07 11:30:27;;;;;;;22.03;14.90;;;;;;;;;;755159;181;641442;-77
2023/04/07 11:32:53;;;;;;;15.10;8.33;;;;;;;;;;754228;182;623244;-78
2023/04/07 11:35:18;;;;;;;23.27;17.23;;;;;;;;;;758591;183;660895;-78
2023/04/07 11:37:44;;;;;;;29.47;18.97;;;;;;;;;;761632;182;631823;-78
2023/04/07 11:40:11;;;;;;;25.50;16.97;;;;;;;;;;754257;180;625175;-79
2023/04/07 11:42:36;;;;;;;19.67;14.10;;;;;;;;;;760643;183;667789;-80
2023/04/07 11:45:02;;;;;;;24.60;18.13;;;;;;;;;;768052;181;636579;-78
2023/04/07 11:47:36;;;;;;;14.60;9.73;;;;;;;;;;765426;181;616726;-77
2023/04/07 11:50:02;;;;;;;117.10;59.13;;;;;;;;;;752853;182;650692;-79
2023/04/07 11:52:27;;;;;;;26.70;18.20;;;;;;;;;;759988;182;631146;-78
2023/04/07 11:54:53;;;;;;;54.37;26.27;;;;;;;;;;763844;182;628567;-79
2023/04/07 11:57:23;;;;;;;77.27;38.30;;;;;;;;;;761134;181;627016;-79
2023/04/07 11:59:49;;;;;;;30.40;18.60;;;;;;;;;;763746;182;619655;-79
2023/04/07 12:02:21;;;;;;;49.40;24.50;;;;;;;;;;767640;181;622119;-79
2023/04/07 12:04:52;;;;;;;38.07;20.57;;;;;;;;;;768263;183;639091;-79
2023/04/07 12:07:19;;;;;;;32.33;19.40;;;;;;;;;;759665;183;632938;-80
2023/04/07 12:09:46;;;;;;;21.00;16.37;;;;;;;;;;766654;181;638691;-78
2023/04/07 12:12:10;;;;;;;23.63;15.40;;;;;;;;;;766954;182;646112;-78
2023/04/07 12:14:36;;;;;;;24.77;17.23;;;;;;;;;;766357;181;629917;-78
2023/04/07 12:17:02;;;;;;;21.93;15.93;;;;;;;;;;763904;184;631643;-79
2023/04/07 12:19:27;;;;;;;23.73;16.40;;;;;;;;;;762948;181;618500;-79
2023/04/07 12:21:53;;;;;;;22.40;14.20;;;;;;;;;;765855;181;640638;-78
2023/04/07 12:24:20;;;;;;;38.83;28.30;;;;;;;;;;760034;181;653130;-78
2023/04/07 12:26:45;;;;;;;23.93;17.90;;;;;;;;;;765706;181;625920;-78
2023/04/07 12:29:11;;;;;;;28.87;20.33;;;;;;;;;;766955;182;659669;-78
2023/04/07 12:31:37;;;;;;;58.40;36.40;;;;;;;;;;758605;182;676110;-78
2023/04/07 12:34:03;;;;;;;36.33;25.63;;;;;;;;;;751016;182;625764;-77
2023/04/07 12:36:28;;;;;;;24.83;18.60;;;;;;;;;;762744;182;639991;-79
2023/04/07 12:38:54;;;;;;;31.03;19.90;;;;;;;;;;757375;182;626446;-79
2023/04/07 12:41:20;;;;;;;27.20;19.10;;;;;;;;;;762052;182;642572;-78
2023/04/07 12:43:46;;;;;;;26.70;17.90;;;;;;;;;;760175;182;629781;-77
2023/04/07 12:46:12;;;;;;;43.80;22.63;;;;;;;;;;748899;185;626772;-78
2023/04/07 12:48:38;;;;;;;40.87;23.00;;;;;;;;;;755231;184;686897;-77
2023/04/07 12:51:04;;;;;;;37.23;20.93;;;;;;;;;;761398;181;653203;-77
2023/04/07 12:53:31;;;;;;;45.87;23.93;;;;;;;;;;763494;181;617719;-78
2023/04/07 12:55:56;;;;;;;24.20;17.53;;;;;;;;;;751568;184;655476;-79
2023/04/07 12:58:23;;;;;;;33.33;20.77;;;;;;;;;;754299;185;664297;-77
2023/04/07 13:00:48;;;;;;;24.70;18.37;;;;;;;;;;765942;183;639100;-77
2023/04/07 13:03:14;;;;;;;26.87;20.80;;;;;;;;;;762728;181;638691;-78
2023/04/07 13:05:39;;;;;;;30.65;21.50;;;;;;;;;;762679;182;645959;-80
2023/04/07 13:08:06;;;;;;;32.73;20.13;;;;;;;;;;763368;181;637471;-77
2023/04/07 13:10:31;;;;;;;37.00;24.17;;;;;;;;;;754131;184;647824;-79
2023/04/07 13:12:57;;;;;;;31.03;21.30;;;;;;;;;;764377;181;625243;-79
2023/04/07 13:15:23;;;;;;;22.80;17.10;;;;;;;;;;761702;182;645595;-79
2023/04/07 13:17:49;;;;;;;34.10;24.67;;;;;;;;;;768561;179;629424;-79
2023/04/07 13:20:15;;;;;;;28.83;20.07;;;;;;;;;;761478;181;641706;-78
2023/04/07 13:22:41;;;;;;;80.97;39.07;;;;;;;;;;763920;181;629354;-79
2023/04/07 13:25:07;;;;;;;46.63;25.90;;;;;;;;;;768330;181;624204;-78
2023/04/07 13:27:32;;;;;;;60.83;35.07;;;;;;;;;;761922;181;631295;-79
2023/04/07 13:29:58;;;;;;;35.30;22.83;;;;;;;;;;758662;179;622931;-77
2023/04/07 13:32:24;;;;;;;23.10;14.70;;;;;;;;;;765785;183;635013;-79
2023/04/07 13:34:51;;;;;;;62.07;33.43;;;;;;;;;;756190;182;635906;-79
2023/04/07 13:37:18;;;;;;;49.60;27.57;;;;;;;;;;759297;182;1256807;-79
2023/04/07 13:39:43;;;;;;;35.67;22.10;;;;;;;;;;766500;182;744021;-78
2023/04/07 13:42:09;;;;;;;33.47;22.83;;;;;;;;;;772894;181;629606;-78
2023/04/07 13:44:36;;;;;;;33.57;24.23;;;;;;;;;;758854;180;636618;-79
2023/04/07 13:47:00;;;;;;;32.53;22.90;;;;;;;;;;765372;181;651315;-80
2023/04/07 13:49:26;;;;;;;30.37;21.60;;;;;;;;;;763071;181;630386;-78
2023/04/07 13:51:52;;;;;;;27.00;19.00;;;;;;;;;;762057;180;651968;-78
2023/04/07 13:54:18;;;;;;;29.30;18.93;;;;;;;;;;759560;181;644390;-78
2023/04/07 13:56:44;;;;;;;40.87;24.63;;;;;;;;;;765814;182;649322;-79